sensor_id;sensor_type;location;lat;lon;timestamp;pressure;altitude;pressure_sealevel;temperature;humidity
34177;BME280;20450;49.074;9.158;2022-09-09T00:00:57;99138.72;;;17.69;80.10
34177;BME280;20450;49.074;9.158;2022-09-09T00:03:40;99123.06;;;17.68;79.86
34177;BME280;20450;49.074;9.158;2022-09-09T00:06:27;99129.63;;;17.80;79.06
34177;BME280;20450;49.074;9.158;2022-09-09T00:09:11;99134.56;;;17.75;79.22
34177;BME280;20450;49.074;9.158;2022-09-09T00:11:56;99111.19;;;17.72;79.95
34177;BME280;20450;49.074;9.158;2022-09-09T00:14:54;99116.75;;;17.85;79.54
34177;BME280;20450;49.074;9.158;2022-09-09T00:18:14;99110.16;;;17.89;80.41
34177;BME280;20450;49.074;9.158;2022-09-09T00:20:58;99102.56;;;17.86;81.21
34177;BME280;20450;49.074;9.158;2022-09-09T00:23:38;99103.63;;;17.69;82.17
34177;BME280;20450;49.074;9.158;2022-09-09T00:26:12;99106.00;;;17.32;80.85
34177;BME280;20450;49.074;9.158;2022-09-09T00:28:56;99102.25;;;17.18;83.23
34177;BME280;20450;49.074;9.158;2022-09-09T00:31:33;99125.09;;;17.26;82.75
34177;BME280;20450;49.074;9.158;2022-09-09T00:34:11;99124.94;;;17.19;83.08
34177;BME280;20450;49.074;9.158;2022-09-09T00:36:41;99108.31;;;17.19;82.84
34177;BME280;20450;49.074;9.158;2022-09-09T00:39:15;99098.78;;;17.10;81.69
34177;BME280;20450;49.074;9.158;2022-09-09T00:42:13;99114.91;;;17.23;81.99
34177;BME280;20450;49.074;9.158;2022-09-09T00:44:58;99122.28;;;17.27;82.14
34177;BME280;20450;49.074;9.158;2022-09-09T00:47:40;99119.47;;;17.37;80.50
34177;BME280;20450;49.074;9.158;2022-09-09T00:50:41;99108.66;;;17.32;79.84
34177;BME280;20450;49.074;9.158;2022-09-09T00:53:58;99137.28;;;17.43;80.20
34177;BME280;20450;49.074;9.158;2022-09-09T00:57:25;99113.06;;;17.39;79.37
34177;BME280;20450;49.074;9.158;2022-09-09T00:59:59;99122.66;;;17.40;79.95
34177;BME280;20450;49.074;9.158;2022-09-09T01:06:24;99124.41;;;17.56;79.26
34177;BME280;20450;49.074;9.158;2022-09-09T01:09:21;99131.28;;;17.73;78.50
34177;BME280;20450;49.074;9.158;2022-09-09T01:12:16;99122.22;;;17.75;79.13
34177;BME280;20450;49.074;9.158;2022-09-09T01:19:28;99126.09;;;17.49;78.74
34177;BME280;20450;49.074;9.158;2022-09-09T01:22:14;99125.75;;;17.52;78.98
34177;BME280;20450;49.074;9.158;2022-09-09T01:28:34;99125.75;;;17.52;78.75
34177;BME280;20450;49.074;9.158;2022-09-09T01:31:17;99121.31;;;17.52;78.76
34177;BME280;20450;49.074;9.158;2022-09-09T01:33:58;99111.59;;;17.45;78.42
34177;BME280;20450;49.074;9.158;2022-09-09T01:36:37;99111.44;;;17.46;79.33
34177;BME280;20450;49.074;9.158;2022-09-09T01:39:10;99134.63;;;17.51;79.29
34177;BME280;20450;49.074;9.158;2022-09-09T01:41:55;99120.31;;;17.45;78.68
34177;BME280;20450;49.074;9.158;2022-09-09T01:44:28;99126.22;;;17.55;79.37
34177;BME280;20450;49.074;9.158;2022-09-09T01:47:07;99145.28;;;17.73;78.87
34177;BME280;20450;49.074;9.158;2022-09-09T01:49:50;99130.78;;;17.77;78.18
34177;BME280;20450;49.074;9.158;2022-09-09T01:52:34;99135.72;;;17.80;77.01
34177;BME280;20450;49.074;9.158;2022-09-09T01:55:33;99119.09;;;17.72;78.05
34177;BME280;20450;49.074;9.158;2022-09-09T01:58:32;99127.94;;;17.87;77.71
34177;BME280;20450;49.074;9.158;2022-09-09T02:01:15;99128.78;;;17.87;77.12
34177;BME280;20450;49.074;9.158;2022-09-09T02:03:52;99124.03;;;17.75;77.37
34177;BME280;20450;49.074;9.158;2022-09-09T02:06:31;99128.50;;;17.66;78.15
34177;BME280;20450;49.074;9.158;2022-09-09T02:09:18;99125.91;;;17.58;79.25
34177;BME280;20450;49.074;9.158;2022-09-09T02:12:01;99139.22;;;17.57;78.42
34177;BME280;20450;49.074;9.158;2022-09-09T02:14:47;99128.53;;;17.50;78.80
34177;BME280;20450;49.074;9.158;2022-09-09T02:17:28;99121.94;;;17.54;80.17
34177;BME280;20450;49.074;9.158;2022-09-09T02:20:22;99123.72;;;17.70;79.78
34177;BME280;20450;49.074;9.158;2022-09-09T02:23:06;99106.22;;;17.85;79.17
34177;BME280;20450;49.074;9.158;2022-09-09T02:25:37;99088.41;;;17.87;79.84
34177;BME280;20450;49.074;9.158;2022-09-09T02:28:16;99095.94;;;17.98;81.54
34177;BME280;20450;49.074;9.158;2022-09-09T02:30:49;99116.81;;;18.07;82.42
34177;BME280;20450;49.074;9.158;2022-09-09T02:33:18;99120.44;;;18.06;82.17
34177;BME280;20450;49.074;9.158;2022-09-09T02:35:49;99139.19;;;17.73;82.90
34177;BME280;20450;49.074;9.158;2022-09-09T02:38:22;99142.22;;;17.22;85.97
34177;BME280;20450;49.074;9.158;2022-09-09T02:41:04;99124.97;;;16.95;87.03
34177;BME280;20450;49.074;9.158;2022-09-09T02:43:32;99121.00;;;16.99;86.35
34177;BME280;20450;49.074;9.158;2022-09-09T02:46:08;99113.59;;;17.03;85.97
34177;BME280;20450;49.074;9.158;2022-09-09T02:48:55;99112.44;;;17.05;85.60
34177;BME280;20450;49.074;9.158;2022-09-09T02:51:35;99119.84;;;17.10;85.36
34177;BME280;20450;49.074;9.158;2022-09-09T02:54:20;99106.00;;;17.08;85.35
34177;BME280;20450;49.074;9.158;2022-09-09T02:56:53;99100.47;;;16.87;86.50
34177;BME280;20450;49.074;9.158;2022-09-09T02:59:27;99109.00;;;16.89;87.00
34177;BME280;20450;49.074;9.158;2022-09-09T03:01:56;99100.28;;;16.96;86.88
34177;BME280;20450;49.074;9.158;2022-09-09T03:04:24;99117.22;;;16.94;86.98
34177;BME280;20450;49.074;9.158;2022-09-09T03:06:51;99110.81;;;16.96;87.09
34177;BME280;20450;49.074;9.158;2022-09-09T03:09:20;99104.38;;;17.07;86.56
34177;BME280;20450;49.074;9.158;2022-09-09T03:11:49;99105.03;;;17.01;86.92
34177;BME280;20450;49.074;9.158;2022-09-09T03:14:17;99111.13;;;16.93;87.63
34177;BME280;20450;49.074;9.158;2022-09-09T03:16:44;99105.03;;;16.85;88.58
34177;BME280;20450;49.074;9.158;2022-09-09T03:19:13;99100.94;;;16.98;88.51
34177;BME280;20450;49.074;9.158;2022-09-09T03:21:40;99100.75;;;17.08;87.28
34177;BME280;20450;49.074;9.158;2022-09-09T03:24:07;99108.34;;;17.11;87.31
34177;BME280;20450;49.074;9.158;2022-09-09T03:26:34;99102.06;;;17.12;86.70
34177;BME280;20450;49.074;9.158;2022-09-09T03:29:02;99107.03;;;17.15;88.07
34177;BME280;20450;49.074;9.158;2022-09-09T03:31:29;99113.72;;;17.17;87.89
34177;BME280;20450;49.074;9.158;2022-09-09T03:33:57;99100.09;;;17.14;87.24
34177;BME280;20450;49.074;9.158;2022-09-09T03:36:29;99105.34;;;17.22;87.45
34177;BME280;20450;49.074;9.158;2022-09-09T03:38:57;99104.00;;;17.26;87.15
34177;BME280;20450;49.074;9.158;2022-09-09T03:41:27;99111.56;;;17.37;87.98
34177;BME280;20450;49.074;9.158;2022-09-09T03:43:54;99110.44;;;17.39;86.38
34177;BME280;20450;49.074;9.158;2022-09-09T03:46:25;99088.75;;;16.81;87.82
34177;BME280;20450;49.074;9.158;2022-09-09T03:48:53;99088.25;;;16.62;89.21
34177;BME280;20450;49.074;9.158;2022-09-09T03:51:21;99102.91;;;16.64;89.96
34177;BME280;20450;49.074;9.158;2022-09-09T03:53:51;99093.53;;;16.62;89.71
34177;BME280;20450;49.074;9.158;2022-09-09T03:56:18;99096.31;;;16.60;89.88
34177;BME280;20450;49.074;9.158;2022-09-09T03:58:45;99102.41;;;16.77;88.52
34177;BME280;20450;49.074;9.158;2022-09-09T04:01:14;99106.03;;;16.60;89.74
34177;BME280;20450;49.074;9.158;2022-09-09T04:03:42;99104.53;;;16.57;90.67
34177;BME280;20450;49.074;9.158;2022-09-09T04:06:12;99111.78;;;16.55;91.10
34177;BME280;20450;49.074;9.158;2022-09-09T04:08:45;99111.09;;;16.53;90.62
34177;BME280;20450;49.074;9.158;2022-09-09T04:11:15;99107.97;;;16.42;91.93
34177;BME280;20450;49.074;9.158;2022-09-09T04:13:44;99112.03;;;16.36;92.18
34177;BME280;20450;49.074;9.158;2022-09-09T04:16:12;99113.66;;;16.37;92.57
34177;BME280;20450;49.074;9.158;2022-09-09T04:18:41;99107.25;;;16.32;93.20
34177;BME280;20450;49.074;9.158;2022-09-09T04:21:10;99118.16;;;16.45;92.42
34177;BME280;20450;49.074;9.158;2022-09-09T04:23:37;99107.97;;;16.42;92.55
34177;BME280;20450;49.074;9.158;2022-09-09T04:26:05;99123.25;;;16.46;92.46
34177;BME280;20450;49.074;9.158;2022-09-09T04:28:36;99122.13;;;16.49;91.70
34177;BME280;20450;49.074;9.158;2022-09-09T04:31:15;99134.16;;;16.67;90.90
34177;BME280;20450;49.074;9.158;2022-09-09T04:33:48;99119.19;;;16.68;90.44
34177;BME280;20450;49.074;9.158;2022-09-09T04:36:16;99117.38;;;16.76;89.76
34177;BME280;20450;49.074;9.158;2022-09-09T04:38:44;99113.09;;;16.67;89.15
34177;BME280;20450;49.074;9.158;2022-09-09T04:41:11;99112.94;;;16.77;89.08
34177;BME280;20450;49.074;9.158;2022-09-09T04:43:43;99129.41;;;16.87;88.98
34177;BME280;20450;49.074;9.158;2022-09-09T04:46:12;99139.91;;;16.79;88.27
34177;BME280;20450;49.074;9.158;2022-09-09T04:48:39;99147.97;;;16.85;88.15
34177;BME280;20450;49.074;9.158;2022-09-09T04:51:12;99144.53;;;16.77;88.37
34177;BME280;20450;49.074;9.158;2022-09-09T04:53:42;99141.56;;;16.72;88.52
34177;BME280;20450;49.074;9.158;2022-09-09T04:56:13;99141.06;;;16.76;88.23
34177;BME280;20450;49.074;9.158;2022-09-09T04:58:49;99134.63;;;16.55;89.02
34177;BME280;20450;49.074;9.158;2022-09-09T05:01:18;99140.03;;;16.53;89.48
34177;BME280;20450;49.074;9.158;2022-09-09T05:03:48;99131.81;;;16.48;89.45
34177;BME280;20450;49.074;9.158;2022-09-09T05:06:20;99141.69;;;16.46;89.92
34177;BME280;20450;49.074;9.158;2022-09-09T05:08:52;99144.16;;;16.48;89.63
34177;BME280;20450;49.074;9.158;2022-09-09T05:11:26;99145.44;;;16.52;89.41
34177;BME280;20450;49.074;9.158;2022-09-09T05:14:00;99156.31;;;16.49;89.76
34177;BME280;20450;49.074;9.158;2022-09-09T05:16:28;99156.31;;;16.49;89.89
34177;BME280;20450;49.074;9.158;2022-09-09T05:18:56;99163.41;;;16.56;90.00
34177;BME280;20450;49.074;9.158;2022-09-09T05:21:25;99166.84;;;16.49;90.35
34177;BME280;20450;49.074;9.158;2022-09-09T05:23:52;99163.22;;;16.50;90.29
34177;BME280;20450;49.074;9.158;2022-09-09T05:26:20;99166.03;;;16.56;90.02
34177;BME280;20450;49.074;9.158;2022-09-09T05:28:51;99159.94;;;16.56;89.85
34177;BME280;20450;49.074;9.158;2022-09-09T05:31:20;99173.53;;;16.43;90.10
34177;BME280;20450;49.074;9.158;2022-09-09T05:33:51;99171.09;;;16.50;89.22
34177;BME280;20450;49.074;9.158;2022-09-09T05:36:20;99183.03;;;16.94;87.76
34177;BME280;20450;49.074;9.158;2022-09-09T05:38:52;99173.81;;;17.22;86.91
34177;BME280;20450;49.074;9.158;2022-09-09T05:41:19;99184.38;;;17.46;84.81
34177;BME280;20450;49.074;9.158;2022-09-09T05:43:47;99179.00;;;17.86;83.02
34177;BME280;20450;49.074;9.158;2022-09-09T05:46:20;99179.56;;;18.58;79.71
34177;BME280;20450;49.074;9.158;2022-09-09T05:48:51;99177.59;;;18.83;77.57
34177;BME280;20450;49.074;9.158;2022-09-09T05:51:25;99187.97;;;18.31;79.61
34177;BME280;20450;49.074;9.158;2022-09-09T05:53:56;99189.56;;;18.93;76.92
34177;BME280;20450;49.074;9.158;2022-09-09T05:56:26;99182.09;;;18.44;78.40
34177;BME280;20450;49.074;9.158;2022-09-09T05:58:56;99172.78;;;17.79;81.55
34177;BME280;20450;49.074;9.158;2022-09-09T06:01:26;99164.13;;;17.46;82.75
34177;BME280;20450;49.074;9.158;2022-09-09T06:03:56;99178.78;;;17.41;84.53
34177;BME280;20450;49.074;9.158;2022-09-09T06:06:25;99180.41;;;17.34;83.24
34177;BME280;20450;49.074;9.158;2022-09-09T06:08:57;99175.13;;;17.34;84.05
34177;BME280;20450;49.074;9.158;2022-09-09T06:11:30;99178.75;;;17.33;83.72
34177;BME280;20450;49.074;9.158;2022-09-09T06:14:04;99184.19;;;17.39;83.26
34177;BME280;20450;49.074;9.158;2022-09-09T06:16:34;99182.72;;;17.45;82.99
34177;BME280;20450;49.074;9.158;2022-09-09T06:19:15;99186.84;;;17.47;83.05
34177;BME280;20450;49.074;9.158;2022-09-09T06:21:43;99186.00;;;17.47;82.15
34177;BME280;20450;49.074;9.158;2022-09-09T06:24:11;99184.38;;;17.46;82.81
34177;BME280;20450;49.074;9.158;2022-09-09T06:26:39;99190.63;;;17.45;83.25
34177;BME280;20450;49.074;9.158;2022-09-09T06:29:18;99190.97;;;17.50;83.22
34177;BME280;20450;49.074;9.158;2022-09-09T06:31:46;99187.94;;;17.69;81.85
34177;BME280;20450;49.074;9.158;2022-09-09T06:34:21;99189.59;;;17.78;81.45
34177;BME280;20450;49.074;9.158;2022-09-09T06:36:52;99166.06;;;17.60;82.08
34177;BME280;20450;49.074;9.158;2022-09-09T06:39:20;99191.91;;;17.73;81.73
34177;BME280;20450;49.074;9.158;2022-09-09T06:41:47;99180.06;;;17.53;82.96
34177;BME280;20450;49.074;9.158;2022-09-09T06:44:33;99189.91;;;17.83;80.92
34177;BME280;20450;49.074;9.158;2022-09-09T06:47:08;99186.78;;;17.71;81.58
34177;BME280;20450;49.074;9.158;2022-09-09T06:49:35;99197.16;;;17.81;80.93
34177;BME280;20450;49.074;9.158;2022-09-09T06:52:10;99198.16;;;17.80;81.06
34177;BME280;20450;49.074;9.158;2022-09-09T06:54:44;99193.69;;;17.88;81.35
34177;BME280;20450;49.074;9.158;2022-09-09T06:57:13;99179.53;;;17.81;80.66
34177;BME280;20450;49.074;9.158;2022-09-09T07:00:03;99184.59;;;17.91;80.03
34177;BME280;20450;49.074;9.158;2022-09-09T07:02:32;99182.94;;;17.98;80.70
34177;BME280;20450;49.074;9.158;2022-09-09T07:04:59;99186.53;;;18.05;79.34
34177;BME280;20450;49.074;9.158;2022-09-09T07:07:27;99198.38;;;18.09;79.17
34177;BME280;20450;49.074;9.158;2022-09-09T07:09:55;99204.00;;;18.06;79.59
34177;BME280;20450;49.074;9.158;2022-09-09T07:12:23;99190.09;;;18.20;79.87
34177;BME280;20450;49.074;9.158;2022-09-09T07:14:56;99198.97;;;18.27;79.15
34177;BME280;20450;49.074;9.158;2022-09-09T07:17:23;99196.16;;;18.36;77.71
34177;BME280;20450;49.074;9.158;2022-09-09T07:19:51;99204.59;;;18.32;78.18
34177;BME280;20450;49.074;9.158;2022-09-09T07:22:18;99200.41;;;18.45;77.92
34177;BME280;20450;49.074;9.158;2022-09-09T07:24:49;99193.41;;;18.60;76.99
34177;BME280;20450;49.074;9.158;2022-09-09T07:27:18;99194.88;;;18.63;75.29
34177;BME280;20450;49.074;9.158;2022-09-09T07:29:49;99202.69;;;18.79;74.26
34177;BME280;20450;49.074;9.158;2022-09-09T07:32:17;99205.13;;;19.11;73.89
34177;BME280;20450;49.074;9.158;2022-09-09T07:34:44;99212.75;;;19.06;74.25
34177;BME280;20450;49.074;9.158;2022-09-09T07:37:13;99210.47;;;19.25;73.57
34177;BME280;20450;49.074;9.158;2022-09-09T07:39:44;99200.41;;;18.98;73.54
34177;BME280;20450;49.074;9.158;2022-09-09T07:42:12;99204.94;;;19.12;73.48
34177;BME280;20450;49.074;9.158;2022-09-09T07:44:39;99200.34;;;19.37;72.74
34177;BME280;20450;49.074;9.158;2022-09-09T07:47:12;99216.06;;;19.82;71.58
34177;BME280;20450;49.074;9.158;2022-09-09T07:49:44;99205.88;;;19.93;71.41
34177;BME280;20450;49.074;9.158;2022-09-09T07:52:11;99204.50;;;19.68;71.44
34177;BME280;20450;49.074;9.158;2022-09-09T07:54:46;99203.09;;;20.09;70.14
34177;BME280;20450;49.074;9.158;2022-09-09T07:57:14;99206.81;;;21.36;65.71
34177;BME280;20450;49.074;9.158;2022-09-09T07:59:41;99211.94;;;21.92;62.84
34177;BME280;20450;49.074;9.158;2022-09-09T08:02:08;99217.84;;;22.22;62.51
34177;BME280;20450;49.074;9.158;2022-09-09T08:04:37;99229.84;;;23.05;60.25
34177;BME280;20450;49.074;9.158;2022-09-09T08:07:07;99226.56;;;22.97;58.56
34177;BME280;20450;49.074;9.158;2022-09-09T08:09:43;99230.59;;;24.55;55.68
34177;BME280;20450;49.074;9.158;2022-09-09T08:12:16;99224.53;;;24.22;56.33
34177;BME280;20450;49.074;9.158;2022-09-09T08:14:44;99220.16;;;25.35;52.77
34177;BME280;20450;49.074;9.158;2022-09-09T08:17:13;99215.44;;;26.65;49.86
34177;BME280;20450;49.074;9.158;2022-09-09T08:19:42;99223.00;;;27.68;46.60
34177;BME280;20450;49.074;9.158;2022-09-09T08:22:14;99223.69;;;28.44;44.42
34177;BME280;20450;49.074;9.158;2022-09-09T08:24:42;99203.44;;;28.25;44.31
34177;BME280;20450;49.074;9.158;2022-09-09T08:27:09;99190.84;;;26.20;49.03
34177;BME280;20450;49.074;9.158;2022-09-09T08:29:37;99192.69;;;26.02;49.98
34177;BME280;20450;49.074;9.158;2022-09-09T08:32:05;99219.06;;;27.18;46.64
34177;BME280;20450;49.074;9.158;2022-09-09T08:34:40;99208.06;;;27.72;44.31
34177;BME280;20450;49.074;9.158;2022-09-09T08:37:18;99213.44;;;28.41;43.36
34177;BME280;20450;49.074;9.158;2022-09-09T08:39:46;99209.19;;;29.24;41.76
34177;BME280;20450;49.074;9.158;2022-09-09T08:42:29;99218.31;;;30.22;39.03
34177;BME280;20450;49.074;9.158;2022-09-09T08:45:24;99213.66;;;30.77;36.88
34177;BME280;20450;49.074;9.158;2022-09-09T08:48:13;99218.69;;;28.87;40.48
34177;BME280;20450;49.074;9.158;2022-09-09T08:50:52;99196.19;;;29.49;40.70
34177;BME280;20450;49.074;9.158;2022-09-09T08:53:27;99192.69;;;26.02;48.11
34177;BME280;20450;49.074;9.158;2022-09-09T08:56:04;99191.22;;;24.64;50.68
34177;BME280;20450;49.074;9.158;2022-09-09T08:58:48;99197.81;;;25.79;48.49
34177;BME280;20450;49.074;9.158;2022-09-09T09:01:39;99185.22;;;24.75;51.70
34177;BME280;20450;49.074;9.158;2022-09-09T09:04:36;99184.97;;;26.12;47.88
34177;BME280;20450;49.074;9.158;2022-09-09T09:08:03;99220.59;;;27.37;44.63
34177;BME280;20450;49.074;9.158;2022-09-09T09:10:45;99206.06;;;25.28;49.79
34177;BME280;20450;49.074;9.158;2022-09-09T09:13:32;99202.88;;;26.65;46.05
34177;BME280;20450;49.074;9.158;2022-09-09T09:16:19;99225.63;;;27.56;44.18
34177;BME280;20450;49.074;9.158;2022-09-09T09:18:53;99203.31;;;28.08;43.30
34177;BME280;20450;49.074;9.158;2022-09-09T09:21:36;99207.00;;;25.65;47.66
34177;BME280;20450;49.074;9.158;2022-09-09T09:24:16;99197.66;;;26.70;46.01
34177;BME280;20450;49.074;9.158;2022-09-09T09:26:49;99176.28;;;24.63;49.84
34177;BME280;20450;49.074;9.158;2022-09-09T09:29:21;99193.97;;;26.35;45.60
34177;BME280;20450;49.074;9.158;2022-09-09T09:31:53;99187.22;;;27.10;44.80
34177;BME280;20450;49.074;9.158;2022-09-09T09:34:25;99192.94;;;27.66;43.97
34177;BME280;20450;49.074;9.158;2022-09-09T09:36:56;99206.19;;;27.61;44.67
34177;BME280;20450;49.074;9.158;2022-09-09T09:39:29;99190.00;;;27.03;48.57
34177;BME280;20450;49.074;9.158;2022-09-09T09:42:21;99198.34;;;26.12;51.80
34177;BME280;20450;49.074;9.158;2022-09-09T09:44:53;99224.00;;;24.71;59.05
34177;BME280;20450;49.074;9.158;2022-09-09T09:47:24;99226.66;;;23.55;68.61
34177;BME280;20450;49.074;9.158;2022-09-09T09:50:04;99219.72;;;23.35;66.61
34177;BME280;20450;49.074;9.158;2022-09-09T09:52:55;99209.06;;;21.39;77.19
34177;BME280;20450;49.074;9.158;2022-09-09T09:55:26;99210.41;;;19.33;88.19
34177;BME280;20450;49.074;9.158;2022-09-09T09:58:01;99206.88;;;19.41;91.98
34177;BME280;20450;49.074;9.158;2022-09-09T10:00:33;99200.09;;;19.61;93.87
34177;BME280;20450;49.074;9.158;2022-09-09T10:03:17;99209.97;;;19.96;94.92
34177;BME280;20450;49.074;9.158;2022-09-09T10:05:51;99196.19;;;20.00;86.06
34177;BME280;20450;49.074;9.158;2022-09-09T10:08:19;99201.22;;;19.81;91.58
34177;BME280;20450;49.074;9.158;2022-09-09T10:11:23;99200.97;;;20.05;89.03
34177;BME280;20450;49.074;9.158;2022-09-09T10:14:08;99196.59;;;20.26;88.89
34177;BME280;20450;49.074;9.158;2022-09-09T10:16:59;99191.56;;;20.46;87.75
34177;BME280;20450;49.074;9.158;2022-09-09T10:19:41;99183.50;;;20.54;86.23
34177;BME280;20450;49.074;9.158;2022-09-09T10:22:26;99194.22;;;20.67;82.14
34177;BME280;20450;49.074;9.158;2022-09-09T10:25:07;99178.97;;;19.90;81.97
34177;BME280;20450;49.074;9.158;2022-09-09T10:28:13;99202.00;;;19.30;86.56
34177;BME280;20450;49.074;9.158;2022-09-09T10:31:05;99210.59;;;19.32;90.57
34177;BME280;20450;49.074;9.158;2022-09-09T10:33:50;99212.63;;;18.99;92.27
34177;BME280;20450;49.074;9.158;2022-09-09T10:36:24;99211.41;;;19.10;93.77
34177;BME280;20450;49.074;9.158;2022-09-09T10:38:57;99212.41;;;19.54;92.46
34177;BME280;20450;49.074;9.158;2022-09-09T10:41:42;99207.56;;;19.57;86.97
34177;BME280;20450;49.074;9.158;2022-09-09T10:44:26;99205.94;;;21.08;86.37
34177;BME280;20450;49.074;9.158;2022-09-09T10:47:20;99193.88;;;22.09;77.73
34177;BME280;20450;49.074;9.158;2022-09-09T10:50:28;99206.13;;;23.04;73.18
34177;BME280;20450;49.074;9.158;2022-09-09T10:53:35;99195.13;;;23.52;76.31
34177;BME280;20450;49.074;9.158;2022-09-09T10:56:11;99180.28;;;24.28;67.34
34177;BME280;20450;49.074;9.158;2022-09-09T10:58:46;99200.88;;;23.69;64.78
34177;BME280;20450;49.074;9.158;2022-09-09T11:01:20;99205.91;;;25.72;62.49
34177;BME280;20450;49.074;9.158;2022-09-09T11:03:55;99201.84;;;25.08;58.61
34177;BME280;20450;49.074;9.158;2022-09-09T11:06:34;99187.19;;;24.42;62.16
34177;BME280;20450;49.074;9.158;2022-09-09T11:09:15;99192.22;;;23.08;62.58
34177;BME280;20450;49.074;9.158;2022-09-09T11:11:51;99182.25;;;22.50;67.61
34177;BME280;20450;49.074;9.158;2022-09-09T11:14:41;99195.63;;;22.76;67.65
34177;BME280;20450;49.074;9.158;2022-09-09T11:17:15;99186.91;;;23.15;63.41
34177;BME280;20450;49.074;9.158;2022-09-09T11:19:46;99195.97;;;23.66;58.52
34177;BME280;20450;49.074;9.158;2022-09-09T11:22:26;99189.81;;;23.98;58.06
34177;BME280;20450;49.074;9.158;2022-09-09T11:25:00;99193.31;;;24.62;56.87
34177;BME280;20450;49.074;9.158;2022-09-09T11:27:42;99187.53;;;24.65;57.50
34177;BME280;20450;49.074;9.158;2022-09-09T11:30:20;99192.09;;;24.58;53.31
34177;BME280;20450;49.074;9.158;2022-09-09T11:33:41;99173.78;;;24.17;51.94
34177;BME280;20450;49.074;9.158;2022-09-09T11:37:07;99183.25;;;23.68;50.45
34177;BME280;20450;49.074;9.158;2022-09-09T11:39:57;99178.78;;;23.36;51.68
34177;BME280;20450;49.074;9.158;2022-09-09T11:42:35;99199.22;;;23.55;50.77
34177;BME280;20450;49.074;9.158;2022-09-09T11:45:27;99169.44;;;22.73;54.98
34177;BME280;20450;49.074;9.158;2022-09-09T11:47:57;99202.81;;;22.82;55.05
34177;BME280;20450;49.074;9.158;2022-09-09T11:50:38;99198.72;;;22.80;55.60
34177;BME280;20450;49.074;9.158;2022-09-09T11:53:21;99193.38;;;22.67;54.05
34177;BME280;20450;49.074;9.158;2022-09-09T11:56:12;99203.72;;;21.60;56.61
34177;BME280;20450;49.074;9.158;2022-09-09T11:58:54;99190.59;;;21.52;58.36
34177;BME280;20450;49.074;9.158;2022-09-09T12:01:37;99187.38;;;21.08;60.03
34177;BME280;20450;49.074;9.158;2022-09-09T12:04:26;99187.41;;;21.14;60.73
34177;BME280;20450;49.074;9.158;2022-09-09T12:07:00;99181.38;;;20.64;61.53
34177;BME280;20450;49.074;9.158;2022-09-09T12:09:39;99176.28;;;20.48;63.62
34177;BME280;20450;49.074;9.158;2022-09-09T12:12:31;99176.88;;;20.29;64.57
34177;BME280;20450;49.074;9.158;2022-09-09T12:17:50;99173.13;;;20.38;69.52
34177;BME280;20450;49.074;9.158;2022-09-09T12:20:22;99165.44;;;20.78;67.12
34177;BME280;20450;49.074;9.158;2022-09-09T12:23:10;99164.75;;;21.33;66.05
34177;BME280;20450;49.074;9.158;2022-09-09T12:26:07;99162.13;;;21.88;64.29
34177;BME280;20450;49.074;9.158;2022-09-09T12:29:00;99155.03;;;21.95;62.21
34177;BME280;20450;49.074;9.158;2022-09-09T12:31:38;99157.41;;;22.24;60.61
34177;BME280;20450;49.074;9.158;2022-09-09T12:34:16;99161.78;;;21.97;62.12
34177;BME280;20450;49.074;9.158;2022-09-09T12:36:57;99135.25;;;21.42;61.84
34177;BME280;20450;49.074;9.158;2022-09-09T12:39:32;99165.22;;;21.91;59.17
34177;BME280;20450;49.074;9.158;2022-09-09T12:42:03;99139.88;;;21.06;59.16
34177;BME280;20450;49.074;9.158;2022-09-09T12:44:32;99160.72;;;21.37;60.03
34177;BME280;20450;49.074;9.158;2022-09-09T12:47:01;99160.38;;;20.98;59.44
34177;BME280;20450;49.074;9.158;2022-09-09T12:49:32;99148.50;;;20.94;60.36
34177;BME280;20450;49.074;9.158;2022-09-09T12:52:04;99149.78;;;20.98;59.12
34177;BME280;20450;49.074;9.158;2022-09-09T12:54:36;99139.78;;;21.21;58.64
34177;BME280;20450;49.074;9.158;2022-09-09T12:57:05;99142.63;;;21.47;60.91
34177;BME280;20450;49.074;9.158;2022-09-09T12:59:41;99131.38;;;22.00;57.14
34177;BME280;20450;49.074;9.158;2022-09-09T13:02:18;99136.78;;;22.26;55.88
34177;BME280;20450;49.074;9.158;2022-09-09T13:04:48;99152.28;;;22.63;55.57
34177;BME280;20450;49.074;9.158;2022-09-09T13:07:16;99144.13;;;22.77;53.80
34177;BME280;20450;49.074;9.158;2022-09-09T13:09:43;99149.25;;;22.79;54.34
34177;BME280;20450;49.074;9.158;2022-09-09T13:12:15;99129.03;;;22.91;54.20
34177;BME280;20450;49.074;9.158;2022-09-09T13:14:49;99125.53;;;22.90;54.77
34177;BME280;20450;49.074;9.158;2022-09-09T13:17:22;99113.88;;;22.65;54.09
34177;BME280;20450;49.074;9.158;2022-09-09T13:19:53;99132.94;;;23.08;52.78
34177;BME280;20450;49.074;9.158;2022-09-09T13:22:27;99127.63;;;23.08;54.04
34177;BME280;20450;49.074;9.158;2022-09-09T13:25:06;99128.88;;;23.38;54.65
34177;BME280;20450;49.074;9.158;2022-09-09T13:27:53;99141.56;;;23.36;54.73
34177;BME280;20450;49.074;9.158;2022-09-09T13:30:26;99128.66;;;23.20;55.16
34177;BME280;20450;49.074;9.158;2022-09-09T13:33:05;99113.13;;;23.30;53.67
34177;BME280;20450;49.074;9.158;2022-09-09T13:35:49;99123.53;;;23.38;51.67
34177;BME280;20450;49.074;9.158;2022-09-09T13:38:20;99123.75;;;23.36;52.42
34177;BME280;20450;49.074;9.158;2022-09-09T13:40:57;99137.22;;;23.54;52.69
34177;BME280;20450;49.074;9.158;2022-09-09T13:43:35;99131.31;;;23.59;53.16
34177;BME280;20450;49.074;9.158;2022-09-09T13:46:30;99129.69;;;23.58;53.08
34177;BME280;20450;49.074;9.158;2022-09-09T13:49:02;99114.91;;;23.68;52.87
34177;BME280;20450;49.074;9.158;2022-09-09T13:51:51;99111.81;;;23.84;52.51
34177;BME280;20450;49.074;9.158;2022-09-09T13:54:30;99106.09;;;23.68;52.62
34177;BME280;20450;49.074;9.158;2022-09-09T13:57:02;99125.34;;;23.63;53.56
34177;BME280;20450;49.074;9.158;2022-09-09T13:59:32;99125.16;;;23.58;53.70
34177;BME280;20450;49.074;9.158;2022-09-09T14:02:21;99122.69;;;23.63;53.73
34177;BME280;20450;49.074;9.158;2022-09-09T14:04:48;99121.47;;;23.66;52.91